createdAt,value
2023-01-18T00:00:37.997Z,12.30
2023-01-18T00:03:05.627Z,7.47
2023-01-18T00:05:34.056Z,8.60
2023-01-18T00:08:01.071Z,7.15
2023-01-18T00:10:27.737Z,8.30
2023-01-18T00:12:54.552Z,19.57
2023-01-18T00:15:21.326Z,11.33
2023-01-18T00:17:51.557Z,12.87
2023-01-18T00:20:20.917Z,19.58
2023-01-18T00:22:48.205Z,15.52
2023-01-18T00:25:15.486Z,15.90
2023-01-18T00:27:47.215Z,13.10
2023-01-18T00:30:17.307Z,14.17
2023-01-18T00:32:44.934Z,16.23
2023-01-18T00:35:12.012Z,15.88
2023-01-18T00:37:39.012Z,16.03
2023-01-18T00:40:06.951Z,15.50
2023-01-18T00:42:52.308Z,15.10
2023-01-18T00:45:18.966Z,12.45
2023-01-18T00:47:45.830Z,16.25
2023-01-18T00:50:12.523Z,15.85
2023-01-18T00:52:46.092Z,15.63
2023-01-18T00:55:14.185Z,12.70
2023-01-18T00:57:41.108Z,15.38
2023-01-18T01:00:09.660Z,18.03
2023-01-18T01:02:42.227Z,15.87
2023-01-18T01:05:46.997Z,14.27
2023-01-18T01:08:18.233Z,17.57
2023-01-18T01:10:47.363Z,16.17
2023-01-18T01:13:39.087Z,20.53
2023-01-18T01:16:29.108Z,14.32
2023-01-18T01:19:14.960Z,20.27
2023-01-18T01:22:00.360Z,17.40
2023-01-18T01:24:46.126Z,17.87
2023-01-18T01:27:13.691Z,15.33
2023-01-18T01:29:40.808Z,16.13
2023-01-18T01:32:07.676Z,16.43
2023-01-18T01:34:34.518Z,16.83
2023-01-18T01:37:01.290Z,18.83
2023-01-18T01:39:27.990Z,16.67
2023-01-18T01:41:54.680Z,16.83
2023-01-18T01:44:21.312Z,19.83
2023-01-18T01:47:01.717Z,20.77
2023-01-18T01:49:32.676Z,15.95
2023-01-18T01:52:06.192Z,14.80
2023-01-18T01:54:59.843Z,22.97
2023-01-18T01:57:31.523Z,16.97
2023-01-18T02:00:02.082Z,19.00
2023-01-18T02:02:40.541Z,22.73
2023-01-18T02:05:09.349Z,15.97
2023-01-18T02:07:36.427Z,16.27
2023-01-18T02:10:04.634Z,13.00
2023-01-18T02:12:32.615Z,16.02
2023-01-18T02:15:00.163Z,13.33
2023-01-18T02:17:51.085Z,16.00
2023-01-18T02:20:51.666Z,13.13
2023-01-18T02:23:55.326Z,14.88
2023-01-18T02:26:59.898Z,17.52
2023-01-18T02:29:42.471Z,16.25
2023-01-18T02:32:22.786Z,15.93
2023-01-18T02:35:03.265Z,17.10
2023-01-18T02:37:42.562Z,14.47
2023-01-18T02:40:28.566Z,18.53
2023-01-18T02:43:17.594Z,19.80
2023-01-18T02:46:05.806Z,16.20
2023-01-18T02:48:40.055Z,14.70
2023-01-18T02:51:07.165Z,17.50
2023-01-18T02:53:39.856Z,14.27
2023-01-18T02:56:17.028Z,14.90
2023-01-18T02:58:47.699Z,16.87
2023-01-18T03:01:35.432Z,13.03
2023-01-18T03:04:10.715Z,15.37
2023-01-18T03:06:40.298Z,13.87
2023-01-18T03:09:07.132Z,20.23
2023-01-18T03:11:45.392Z,15.00
2023-01-18T03:14:22.745Z,13.37
2023-01-18T03:17:13.213Z,18.30
2023-01-18T03:20:06.652Z,12.37
2023-01-18T03:22:57.478Z,13.33
2023-01-18T03:25:36.323Z,20.90
2023-01-18T03:28:38.654Z,15.60
2023-01-18T03:31:28.765Z,15.97
2023-01-18T03:34:09.713Z,16.87
2023-01-18T03:36:41.499Z,13.03
2023-01-18T03:39:16.966Z,14.50
2023-01-18T03:41:50.927Z,12.95
2023-01-18T03:44:25.731Z,18.30
2023-01-18T03:46:52.442Z,15.15
2023-01-18T03:49:19.161Z,11.70
2023-01-18T03:51:59.916Z,16.23
2023-01-18T03:54:39.928Z,18.17
2023-01-18T03:57:26.035Z,18.10
2023-01-18T03:59:52.762Z,23.70
2023-01-18T04:02:21.183Z,16.57
2023-01-18T04:04:47.949Z,16.83
2023-01-18T04:07:14.695Z,16.40
2023-01-18T04:09:41.308Z,17.67
2023-01-18T04:12:07.979Z,15.77
2023-01-18T04:14:34.780Z,18.37
2023-01-18T04:17:01.442Z,19.73
2023-01-18T04:19:28.245Z,17.73
2023-01-18T04:21:55.011Z,15.73
2023-01-18T04:24:21.732Z,16.67
2023-01-18T04:26:48.444Z,16.03
2023-01-18T04:29:15.112Z,18.87
2023-01-18T04:31:41.809Z,20.47
2023-01-18T04:34:08.733Z,23.00
2023-01-18T04:36:35.417Z,20.43
2023-01-18T04:39:02.096Z,18.40
2023-01-18T04:41:28.775Z,17.70
2023-01-18T04:43:55.476Z,16.37
2023-01-18T04:46:22.226Z,15.73
2023-01-18T04:48:52.611Z,17.45
2023-01-18T04:51:20.219Z,17.53
2023-01-18T04:53:47.664Z,21.43
2023-01-18T04:56:14.287Z,16.50
2023-01-18T04:58:41.013Z,18.00
2023-01-18T05:01:09.372Z,15.95
2023-01-18T05:03:38.086Z,15.83
2023-01-18T05:06:09.998Z,16.03
2023-01-18T05:08:40.858Z,22.00
2023-01-18T05:11:13.265Z,16.17
2023-01-18T05:13:40.739Z,15.93
2023-01-18T05:16:12.471Z,19.07
2023-01-18T05:18:39.240Z,18.97
2023-01-18T05:21:06.226Z,17.17
2023-01-18T05:23:32.892Z,18.13
2023-01-18T05:25:59.643Z,19.27
2023-01-18T05:28:27.737Z,17.17
2023-01-18T05:30:55.104Z,15.18
2023-01-18T05:33:22.935Z,18.92
2023-01-18T05:35:55.146Z,15.13
2023-01-18T05:38:22.932Z,15.60
2023-01-18T05:40:55.058Z,19.57
2023-01-18T05:43:23.399Z,17.37
2023-01-18T05:45:50.370Z,17.80
2023-01-18T05:48:17.224Z,16.57
2023-01-18T05:50:46.557Z,17.13
2023-01-18T05:53:15.442Z,20.50
2023-01-18T05:55:42.529Z,14.77
2023-01-18T05:58:09.542Z,15.75
2023-01-18T06:00:36.202Z,22.07
2023-01-18T06:03:02.959Z,19.73
2023-01-18T06:05:29.957Z,18.30
2023-01-18T06:07:56.757Z,16.80
2023-01-18T06:10:23.367Z,16.97
2023-01-18T06:12:50.211Z,25.90
2023-01-18T06:15:17.130Z,17.17
2023-01-18T06:17:46.867Z,16.00
2023-01-18T06:20:14.388Z,16.77
2023-01-18T06:22:41.203Z,20.77
2023-01-18T06:25:10.616Z,18.00
2023-01-18T06:27:40.475Z,18.27
2023-01-18T06:30:07.952Z,19.50
2023-01-18T06:32:34.652Z,21.43
2023-01-18T06:35:01.398Z,20.30
2023-01-18T06:37:28.337Z,21.30
2023-01-18T06:39:55.000Z,17.30
2023-01-18T06:42:21.706Z,19.20
2023-01-18T06:44:48.336Z,21.13
2023-01-18T06:47:19.728Z,24.60
2023-01-18T06:49:49.633Z,20.57
2023-01-18T06:52:16.454Z,19.93
2023-01-18T06:54:44.643Z,18.17
2023-01-18T06:57:12.085Z,17.43
2023-01-18T06:59:39.279Z,16.10
2023-01-18T07:02:06.274Z,19.23
2023-01-18T07:04:35.458Z,13.93
2023-01-18T07:07:02.324Z,14.60
2023-01-18T07:09:29.088Z,18.43
2023-01-18T07:11:55.740Z,15.70
2023-01-18T07:14:22.427Z,17.92
2023-01-18T07:16:49.200Z,19.03
2023-01-18T07:19:16.261Z,14.97
2023-01-18T07:21:43.021Z,18.70
2023-01-18T07:24:09.693Z,18.73
2023-01-18T07:26:36.516Z,23.47
2023-01-18T07:29:03.263Z,24.40
2023-01-18T07:31:30.631Z,19.57
2023-01-18T07:33:57.287Z,16.63
2023-01-18T07:36:23.967Z,15.53
2023-01-18T07:38:50.834Z,16.80
2023-01-18T07:41:17.843Z,16.87
2023-01-18T07:43:45.279Z,14.00
2023-01-18T07:46:15.708Z,14.73
2023-01-18T07:48:42.897Z,15.63
2023-01-18T07:51:10.490Z,16.33
2023-01-18T07:53:38.587Z,17.37
2023-01-18T07:56:15.361Z,14.77
2023-01-18T07:58:42.100Z,15.13
2023-01-18T08:01:15.107Z,14.40
2023-01-18T08:03:43.278Z,17.17
2023-01-18T08:06:12.605Z,19.90
2023-01-18T08:08:39.559Z,17.63
2023-01-18T08:11:07.032Z,14.80
2023-01-18T08:13:33.994Z,18.87
2023-01-18T08:16:02.665Z,21.93
2023-01-18T08:18:29.695Z,19.73
2023-01-18T08:20:56.556Z,17.60
2023-01-18T08:23:23.378Z,16.80
2023-01-18T08:25:50.494Z,18.83
2023-01-18T08:28:17.640Z,17.70
2023-01-18T08:30:47.168Z,17.40
2023-01-18T08:33:14.576Z,21.17
2023-01-18T08:35:43.828Z,20.73
2023-01-18T08:38:11.779Z,20.90
2023-01-18T08:40:38.857Z,19.30
2023-01-18T08:43:06.322Z,15.93
2023-01-18T08:45:34.915Z,21.07
2023-01-18T08:48:07.804Z,14.65
2023-01-18T08:50:35.557Z,19.25
2023-01-18T08:53:02.883Z,14.57
2023-01-18T08:55:29.822Z,15.57
2023-01-18T08:57:58.113Z,17.43
2023-01-18T09:00:28.393Z,16.02
2023-01-18T09:02:55.545Z,14.40
2023-01-18T09:05:23.087Z,16.48
2023-01-18T09:07:50.728Z,13.85
2023-01-18T09:10:18.147Z,13.88
2023-01-18T09:12:44.759Z,14.80
2023-01-18T09:15:11.458Z,17.27
2023-01-18T09:17:38.118Z,15.40
2023-01-18T09:20:09.764Z,16.10
2023-01-18T09:22:37.468Z,19.80
2023-01-18T09:25:05.737Z,14.80
2023-01-18T09:27:33.295Z,18.92
2023-01-18T09:30:00.092Z,14.60
2023-01-18T09:32:27.369Z,15.43
2023-01-18T09:34:54.770Z,17.92
2023-01-18T09:37:21.970Z,15.88
2023-01-18T09:39:52.124Z,18.05
2023-01-18T09:42:23.361Z,15.18
2023-01-18T09:44:53.856Z,18.42
2023-01-18T09:47:23.297Z,18.75
2023-01-18T09:50:00.012Z,19.65
2023-01-18T09:52:32.582Z,17.95
2023-01-18T09:55:13.888Z,20.40
2023-01-18T09:57:55.327Z,19.08
2023-01-18T10:00:28.739Z,19.15
2023-01-18T10:03:00.805Z,17.67
2023-01-18T10:05:32.771Z,15.25
2023-01-18T10:08:18.143Z,17.13
2023-01-18T10:11:29.876Z,16.27
2023-01-18T10:13:59.513Z,16.73
2023-01-18T10:16:26.392Z,13.10
2023-01-18T10:18:57.157Z,17.20
2023-01-18T10:21:28.590Z,17.42
2023-01-18T10:24:23.412Z,12.68
2023-01-18T10:26:55.241Z,13.23
2023-01-18T10:29:41.798Z,14.10
2023-01-18T10:32:17.574Z,12.80
2023-01-18T10:34:52.043Z,12.45
2023-01-18T10:37:40.211Z,12.32
2023-01-18T10:40:10.112Z,16.17
2023-01-18T10:42:45.604Z,13.23
2023-01-18T10:45:27.336Z,16.30
2023-01-18T10:47:56.273Z,15.32
2023-01-18T10:50:37.714Z,17.58
2023-01-18T10:53:38.007Z,19.67
2023-01-18T10:56:17.853Z,12.95
2023-01-18T10:58:54.115Z,17.90
2023-01-18T11:01:30.417Z,17.02
2023-01-18T11:04:07.660Z,15.45
2023-01-18T11:06:48.151Z,16.85
2023-01-18T11:09:46.427Z,14.55
2023-01-18T11:12:34.349Z,15.20
2023-01-18T11:15:13.352Z,18.63
2023-01-18T11:17:43.554Z,21.23
2023-01-18T11:20:33.912Z,14.52
2023-01-18T11:23:14.106Z,18.85
2023-01-18T11:25:52.541Z,21.10
2023-01-18T11:28:27.545Z,17.60
2023-01-18T11:31:13.723Z,16.20
2023-01-18T11:33:50.067Z,15.10
2023-01-18T11:36:19.273Z,19.10
2023-01-18T11:38:46.629Z,17.75
2023-01-18T11:41:20.009Z,15.23
2023-01-18T11:43:59.618Z,14.50
2023-01-18T11:46:29.858Z,15.65
2023-01-18T11:49:33.519Z,16.15
2023-01-18T11:52:02.210Z,20.95
2023-01-18T11:54:40.527Z,16.42
2023-01-18T11:57:12.176Z,14.65
2023-01-18T11:59:45.606Z,17.77
2023-01-18T12:02:12.384Z,16.20
2023-01-18T12:04:47.857Z,16.65
2023-01-18T12:07:17.317Z,19.67
2023-01-18T12:09:56.655Z,17.42
2023-01-18T12:12:29.403Z,13.82
2023-01-18T12:15:13.473Z,15.02
2023-01-18T12:18:17.936Z,19.75
2023-01-18T12:20:53.669Z,16.08
2023-01-18T12:23:42.358Z,13.85
2023-01-18T12:26:13.007Z,13.38
2023-01-18T12:29:04.243Z,14.88
2023-01-18T12:31:48.924Z,17.83
2023-01-18T12:34:21.556Z,16.92
2023-01-18T12:37:11.529Z,16.13
2023-01-18T12:40:24.777Z,12.88
2023-01-18T12:43:12.758Z,13.93
2023-01-18T12:45:42.325Z,18.13
2023-01-18T12:48:27.367Z,17.13
2023-01-18T12:50:56.523Z,16.80
2023-01-18T12:53:45.853Z,16.15
2023-01-18T12:56:33.149Z,15.05
2023-01-18T12:59:05.129Z,15.30
2023-01-18T13:01:42.232Z,16.38
2023-01-18T13:04:17.927Z,16.08
2023-01-18T13:06:46.905Z,13.30
2023-01-18T13:09:18.581Z,15.15
2023-01-18T13:11:46.186Z,16.45
2023-01-18T13:14:22.605Z,15.23
2023-01-18T13:17:11.438Z,17.65
2023-01-18T13:19:58.520Z,17.15
2023-01-18T13:22:59.155Z,17.45
2023-01-18T13:25:49.633Z,20.67
2023-01-18T13:28:20.942Z,15.82
2023-01-18T13:30:50.693Z,17.08
2023-01-18T13:33:23.875Z,16.83
2023-01-18T13:36:17.202Z,15.07
2023-01-18T13:38:51.884Z,16.08
2023-01-18T13:41:26.666Z,17.38
2023-01-18T13:44:01.243Z,13.77
2023-01-18T13:46:28.908Z,16.77
2023-01-18T13:49:36.715Z,13.32
2023-01-18T13:52:31.343Z,14.43
2023-01-18T13:55:01.673Z,13.35
2023-01-18T13:57:30.769Z,14.85
2023-01-18T13:59:57.599Z,17.00
2023-01-18T14:02:36.856Z,12.63
2023-01-18T14:05:08.523Z,18.55
2023-01-18T14:07:43.133Z,11.70
2023-01-18T14:10:36.530Z,13.00
2023-01-18T14:13:05.801Z,18.27
2023-01-18T14:15:53.263Z,11.73
2023-01-18T14:18:28.922Z,14.13
2023-01-18T14:21:25.868Z,11.60
2023-01-18T14:24:14.399Z,10.50
2023-01-18T14:26:43.537Z,14.18
2023-01-18T14:29:17.535Z,10.48
2023-01-18T14:31:48.080Z,10.85
2023-01-18T14:34:32.710Z,11.02
2023-01-18T14:37:00.118Z,13.15
2023-01-18T14:39:29.965Z,14.38
2023-01-18T14:41:59.588Z,11.85
2023-01-18T14:44:33.466Z,18.73
2023-01-18T14:47:05.891Z,10.60
2023-01-18T14:49:38.736Z,13.05
2023-01-18T14:52:07.808Z,13.07
2023-01-18T14:54:35.399Z,12.52
2023-01-18T14:57:04.339Z,13.98
2023-01-18T14:59:32.051Z,12.40
2023-01-18T15:02:14.847Z,10.65
2023-01-18T15:04:45.464Z,15.27
2023-01-18T15:07:19.622Z,13.85
2023-01-18T15:09:47.473Z,13.05
2023-01-18T15:12:18.871Z,10.10
2023-01-18T15:14:48.352Z,15.02
2023-01-18T15:17:25.173Z,10.05
2023-01-18T15:19:55.509Z,10.52
2023-01-18T15:22:32.229Z,12.43
2023-01-18T15:25:00.173Z,14.02
2023-01-18T15:27:31.599Z,12.57
2023-01-18T15:30:00.899Z,12.60
2023-01-18T15:32:31.544Z,10.32
2023-01-18T15:35:00.292Z,9.05
2023-01-18T15:37:33.519Z,11.05
2023-01-18T15:40:02.779Z,17.10
2023-01-18T15:42:56.754Z,13.15
2023-01-18T15:45:34.607Z,13.90
2023-01-18T15:48:07.543Z,10.35
2023-01-18T15:50:37.764Z,11.02
2023-01-18T15:53:11.401Z,10.43
2023-01-18T15:55:40.416Z,14.32
2023-01-18T15:58:15.009Z,15.18
2023-01-18T16:00:53.203Z,10.07
2023-01-18T16:03:25.464Z,12.30
2023-01-18T16:06:10.934Z,12.65
2023-01-18T16:08:58.950Z,12.07
2023-01-18T16:11:33.013Z,11.05
2023-01-18T16:14:09.525Z,9.63
2023-01-18T16:16:41.461Z,11.77
2023-01-18T16:19:31.480Z,11.82
2023-01-18T16:21:59.696Z,11.98
2023-01-18T16:24:33.741Z,15.10
2023-01-18T16:27:21.769Z,16.52
2023-01-18T16:29:57.031Z,13.10
2023-01-18T16:32:29.419Z,16.08
2023-01-18T16:35:17.975Z,14.38
2023-01-18T16:37:45.306Z,13.68
2023-01-18T16:40:21.471Z,14.73
2023-01-18T16:42:55.602Z,17.73
2023-01-18T16:45:22.292Z,15.30
2023-01-18T16:47:49.022Z,13.38
2023-01-18T16:50:16.995Z,15.02
2023-01-18T16:52:44.695Z,13.52
2023-01-18T16:55:13.501Z,12.30
2023-01-18T16:57:40.842Z,10.70
2023-01-18T17:00:18.085Z,8.70
2023-01-18T17:02:45.177Z,11.35
2023-01-18T17:05:12.836Z,7.40
2023-01-18T17:07:40.397Z,8.98
2023-01-18T17:10:20.947Z,8.70
2023-01-18T17:12:47.603Z,9.02
2023-01-18T17:15:14.308Z,11.30
2023-01-18T17:17:41.397Z,8.30
2023-01-18T17:20:19.595Z,10.57
2023-01-18T17:22:46.886Z,10.70
2023-01-18T17:25:14.009Z,10.32
2023-01-18T17:27:40.917Z,10.45
2023-01-18T17:30:08.469Z,10.05
2023-01-18T17:32:36.696Z,8.50
2023-01-18T17:35:04.686Z,7.88
2023-01-18T17:37:33.156Z,8.98
2023-01-18T17:40:16.398Z,12.50
2023-01-18T17:42:44.109Z,6.55
2023-01-18T17:45:14.225Z,7.60
2023-01-18T17:47:42.705Z,9.13
2023-01-18T17:50:12.078Z,9.27
2023-01-18T17:52:40.518Z,14.77
2023-01-18T17:55:10.262Z,14.65
2023-01-18T17:57:37.003Z,17.25
2023-01-18T18:00:05.052Z,15.25
2023-01-18T18:02:34.837Z,12.88
2023-01-18T18:05:01.697Z,11.05
2023-01-18T18:07:28.325Z,13.88
2023-01-18T18:09:59.965Z,13.65
2023-01-18T18:12:31.506Z,9.88
2023-01-18T18:14:58.229Z,13.35
2023-01-18T18:17:27.164Z,9.88
2023-01-18T18:19:54.118Z,10.02
2023-01-18T18:22:21.078Z,12.40
2023-01-18T18:24:48.721Z,14.48
2023-01-18T18:27:16.811Z,9.60
2023-01-18T18:29:44.037Z,12.68
2023-01-18T18:32:11.199Z,11.50
2023-01-18T18:34:37.931Z,10.23
2023-01-18T18:37:05.125Z,12.82
2023-01-18T18:39:32.437Z,12.63
2023-01-18T18:41:59.310Z,12.68
2023-01-18T18:44:26.085Z,12.75
2023-01-18T18:46:52.772Z,14.13
2023-01-18T18:49:19.445Z,16.52
2023-01-18T18:51:46.232Z,13.95
2023-01-18T18:54:13.163Z,10.38
2023-01-18T18:56:39.854Z,9.85
2023-01-18T18:59:06.506Z,11.02
2023-01-18T19:01:33.455Z,10.05
2023-01-18T19:04:00.298Z,15.05
2023-01-18T19:06:27.698Z,11.00
2023-01-18T19:08:54.646Z,15.88
2023-01-18T19:11:21.618Z,10.65
2023-01-18T19:13:49.540Z,17.00
2023-01-18T19:16:16.956Z,9.90
2023-01-18T19:18:43.687Z,11.40
2023-01-18T19:21:10.413Z,12.73
2023-01-18T19:23:37.171Z,10.88
2023-01-18T19:26:03.936Z,10.63
2023-01-18T19:28:30.767Z,12.10
2023-01-18T19:31:05.398Z,16.30
2023-01-18T19:33:32.097Z,13.05
2023-01-18T19:36:06.713Z,11.48
2023-01-18T19:38:33.678Z,13.85
2023-01-18T19:41:02.893Z,10.18
2023-01-18T19:43:29.622Z,12.63
2023-01-18T19:45:59.019Z,11.95
2023-01-18T19:48:25.875Z,18.92
2023-01-18T19:50:52.707Z,11.88
2023-01-18T19:53:19.330Z,15.95
2023-01-18T19:55:45.993Z,10.63
2023-01-18T19:58:12.633Z,13.65
2023-01-18T20:00:41.167Z,10.35
2023-01-18T20:03:11.981Z,13.10
2023-01-18T20:05:42.547Z,8.75
2023-01-18T20:08:09.215Z,11.60
2023-01-18T20:10:36.106Z,12.98
2023-01-18T20:13:03.376Z,10.45
2023-01-18T20:15:30.131Z,14.30
2023-01-18T20:17:56.738Z,14.93
2023-01-18T20:20:31.713Z,9.18
2023-01-18T20:23:01.938Z,7.65
2023-01-18T20:25:29.273Z,9.77
2023-01-18T20:27:56.041Z,9.18
2023-01-18T20:30:22.693Z,10.95
2023-01-18T20:32:49.392Z,10.95
2023-01-18T20:35:16.156Z,9.68
2023-01-18T20:37:42.876Z,7.88
2023-01-18T20:40:10.188Z,11.35
2023-01-18T20:42:37.111Z,10.75
2023-01-18T20:45:04.746Z,14.60
2023-01-18T20:47:31.410Z,10.02
2023-01-18T20:49:58.111Z,9.40
2023-01-18T20:52:24.854Z,10.60
2023-01-18T20:54:51.531Z,14.20
2023-01-18T20:57:18.629Z,12.23
2023-01-18T20:59:45.313Z,10.27
2023-01-18T21:02:12.342Z,11.13
2023-01-18T21:04:39.172Z,6.65
2023-01-18T21:07:05.783Z,10.43
2023-01-18T21:09:32.454Z,8.50
2023-01-18T21:11:59.595Z,10.25
2023-01-18T21:14:26.371Z,13.90
2023-01-18T21:16:53.194Z,8.85
2023-01-18T21:19:20.652Z,8.95
2023-01-18T21:21:47.457Z,7.68
2023-01-18T21:24:14.148Z,7.20
2023-01-18T21:26:40.787Z,10.45
2023-01-18T21:29:07.470Z,7.68
2023-01-18T21:31:34.128Z,13.70
2023-01-18T21:34:00.901Z,9.57
2023-01-18T21:36:27.699Z,10.93
2023-01-18T21:38:54.929Z,9.80
2023-01-18T21:41:41.020Z,11.32
2023-01-18T21:44:27.714Z,15.13
2023-01-18T21:46:54.438Z,9.68
2023-01-18T21:52:47.236Z,8.50
2023-01-18T21:55:15.185Z,10.02
2023-01-18T21:57:41.804Z,8.38
2023-01-18T22:00:09.147Z,11.65
2023-01-18T22:02:36.328Z,9.38
2023-01-18T22:05:03.613Z,8.55
2023-01-18T22:07:32.866Z,11.68
2023-01-18T22:10:05.955Z,10.23
2023-01-18T22:12:35.253Z,13.73
2023-01-18T22:15:04.212Z,11.52
2023-01-18T22:17:30.919Z,10.30
2023-01-18T22:19:57.637Z,7.60
2023-01-18T22:22:24.303Z,10.95
2023-01-18T22:24:50.937Z,10.60
2023-01-18T22:27:17.736Z,9.73
2023-01-18T22:29:44.399Z,9.57
2023-01-18T22:32:11.160Z,10.45
2023-01-18T22:34:37.829Z,9.13
2023-01-18T22:37:05.580Z,9.85
2023-01-18T22:39:32.266Z,9.55
2023-01-18T22:41:58.991Z,7.72
2023-01-18T22:44:25.675Z,11.57
2023-01-18T22:46:52.393Z,9.65
2023-01-18T22:49:19.223Z,8.10
2023-01-18T22:51:45.914Z,12.98
2023-01-18T22:54:12.612Z,8.80
2023-01-18T22:56:39.341Z,10.50
2023-01-18T22:59:05.993Z,10.15
2023-01-18T23:01:33.591Z,9.15
2023-01-18T23:04:02.375Z,9.45
2023-01-18T23:06:41.848Z,10.38
2023-01-18T23:09:09.969Z,8.57
2023-01-18T23:11:37.211Z,12.60
2023-01-18T23:14:23.105Z,14.00
2023-01-18T23:17:08.349Z,9.75
2023-01-18T23:19:35.438Z,10.52
2023-01-18T23:22:07.070Z,12.82
2023-01-18T23:24:35.715Z,9.30
2023-01-18T23:27:03.631Z,12.43
2023-01-18T23:29:30.406Z,10.13
2023-01-18T23:31:58.239Z,12.73
2023-01-18T23:34:25.324Z,10.82
2023-01-18T23:36:52.370Z,12.57
2023-01-18T23:39:37.922Z,11.82
2023-01-18T23:42:23.474Z,10.20
2023-01-18T23:45:08.948Z,13.30
2023-01-18T23:47:54.485Z,9.68
2023-01-18T23:50:40.036Z,11.27
2023-01-18T23:53:30.563Z,9.48
2023-01-18T23:55:57.771Z,10.75
2023-01-18T23:58:24.835Z,10.93
